Time;durP1;ratioP1;P1;durP2;ratioP2;P2;SDS_P1;SDS_P2;PMS_P1;PMS_P2;Temp;Humidity;BMP_temperature;BMP_pressure;BME280_temperature;BME280_humidity;BME280_pressure;Samples;Min_cycle;Max_cycle;Signal;HPM_P1;HPM_P2
2022/03/10 00:01:08;;;;;;;8.40;1.77;;;20.80;92.30;;;;;;5012875;28;20037;-69
2022/03/10 00:03:36;;;;;;;10.65;2.50;;;20.80;92.00;;;;;;5012169;28;20050;-76
2022/03/10 00:06:05;;;;;;;8.85;1.85;;;20.80;91.80;;;;;;5012295;28;20025;-79
2022/03/10 00:08:34;;;;;;;11.32;1.73;;;20.70;91.90;;;;;;5011717;28;20053;-75
2022/03/10 00:11:04;;;;;;;10.25;2.53;;;20.80;92.00;;;;;;5012468;28;20033;-72
2022/03/10 00:13:34;;;;;;;10.45;2.58;;;20.90;91.90;;;;;;5012911;28;20022;-73
2022/03/10 00:16:04;;;;;;;15.52;3.30;;;21.10;91.70;;;;;;5012222;28;20025;-78
2022/03/10 00:18:34;;;;;;;9.52;2.05;;;21.10;91.50;;;;;;5010977;28;20025;-75
2022/03/10 00:21:01;;;;;;;11.55;3.00;;;21.20;90.90;;;;;;5011454;28;20410;-72
2022/03/10 00:23:29;;;;;;;6.97;1.85;;;21.40;90.70;;;;;;5011189;28;20386;-75
2022/03/10 00:25:56;;;;;;;12.15;1.98;;;21.50;90.80;;;;;;5011727;28;20029;-72
2022/03/10 00:28:23;;;;;;;12.45;3.63;;;21.60;90.80;;;;;;5011760;28;20462;-73
2022/03/10 00:30:51;;;;;;;10.10;2.30;;;21.60;90.70;;;;;;5011382;28;20018;-72
2022/03/10 00:33:18;;;;;;;10.05;2.20;;;21.60;90.70;;;;;;5011224;28;20080;-73
2022/03/10 00:35:46;;;;;;;8.85;1.63;;;21.60;90.60;;;;;;5010374;28;20109;-70
2022/03/10 00:38:14;;;;;;;11.70;1.95;;;21.60;90.90;;;;;;5011552;28;20021;-75
2022/03/10 00:40:41;;;;;;;10.68;3.38;;;21.70;90.60;;;;;;5012552;28;20418;-72
2022/03/10 00:43:12;;;;;;;12.73;4.70;;;21.70;90.30;;;;;;5015507;28;20046;-70
2022/03/10 00:45:44;;;;;;;10.85;2.78;;;21.80;90.30;;;;;;5016024;28;20018;-71
2022/03/10 00:48:16;;;;;;;10.55;3.55;;;21.90;90.40;;;;;;5015364;28;20080;-72
2022/03/10 00:50:44;;;;;;;14.65;3.15;;;22.00;90.10;;;;;;5015046;28;20502;-76
2022/03/10 00:53:11;;;;;;;11.07;3.50;;;22.00;90.50;;;;;;5014731;28;20030;-76
2022/03/10 00:55:39;;;;;;;12.35;2.20;;;22.10;90.40;;;;;;5015329;28;20493;-73
2022/03/10 00:58:06;;;;;;;8.75;2.15;;;22.10;90.00;;;;;;5015132;28;20466;-73
2022/03/10 01:00:35;;;;;;;11.02;2.63;;;22.10;89.50;;;;;;5016158;28;20030;-76
2022/03/10 01:03:03;;;;;;;8.63;2.17;;;22.00;90.00;;;;;;5016177;28;20069;-71
2022/03/10 01:05:31;;;;;;;11.13;2.63;;;22.00;90.30;;;;;;5013519;28;20041;-71
2022/03/10 01:07:58;;;;;;;10.77;2.22;;;22.00;90.50;;;;;;5014514;28;20022;-72
2022/03/10 01:10:25;;;;;;;8.93;2.05;;;21.90;90.20;;;;;;5014449;28;20026;-71
2022/03/10 01:12:53;;;;;;;6.95;2.10;;;21.80;90.40;;;;;;5014640;28;20017;-76
2022/03/10 01:15:26;;;;;;;12.45;2.10;;;21.70;90.20;;;;;;5012905;28;20386;-71
2022/03/10 01:17:54;;;;;;;11.20;2.33;;;21.70;90.20;;;;;;5013254;28;20030;-70
2022/03/10 01:20:23;;;;;;;8.32;2.10;;;21.80;90.10;;;;;;5014235;28;20104;-68
2022/03/10 01:22:51;;;;;;;13.82;3.28;;;22.00;90.30;;;;;;5014249;28;20478;-71
2022/03/10 01:25:20;;;;;;;11.38;2.58;;;22.20;89.70;;;;;;5014739;28;20018;-70
2022/03/10 01:27:48;;;;;;;9.02;1.98;;;22.20;90.10;;;;;;5014163;28;20399;-72
2022/03/10 01:30:15;;;;;;;8.82;1.83;;;22.50;88.80;;;;;;5014444;28;20022;-69
2022/03/10 01:32:51;;;;;;;12.35;3.35;;;22.60;87.90;;;;;;5014095;28;20025;-70
2022/03/10 01:35:19;;;;;;;14.73;2.45;;;22.90;87.80;;;;;;5013587;28;20022;-70
2022/03/10 01:37:46;;;;;;;19.23;3.03;;;23.10;86.40;;;;;;5013680;28;20021;-72
2022/03/10 01:40:16;;;;;;;10.35;2.25;;;23.20;88.10;;;;;;5013592;28;20046;-72
2022/03/10 01:42:44;;;;;;;6.90;1.80;;;23.30;87.90;;;;;;5013744;28;20030;-70
2022/03/10 01:45:12;;;;;;;8.15;1.90;;;23.40;87.30;;;;;;5013999;28;20025;-68
2022/03/10 01:47:41;;;;;;;14.25;4.03;;;23.40;86.80;;;;;;5013942;28;20022;-70
2022/03/10 01:50:11;;;;;;;9.45;1.40;;;23.30;86.80;;;;;;5013762;28;20113;-68
2022/03/10 01:52:40;;;;;;;15.52;2.70;;;23.40;86.20;;;;;;5013208;28;20057;-71
2022/03/10 01:55:08;;;;;;;10.43;2.17;;;23.40;85.90;;;;;;5013850;28;20548;-69
2022/03/10 01:57:36;;;;;;;9.65;1.80;;;23.60;87.20;;;;;;5013256;28;20072;-70
2022/03/10 02:00:05;;;;;;;9.20;2.22;;;23.70;86.40;;;;;;5013261;28;20026;-70
2022/03/10 02:02:33;;;;;;;15.43;2.78;;;23.90;85.60;;;;;;5013820;28;20042;-69
2022/03/10 02:05:00;;;;;;;10.65;2.40;;;24.00;84.50;;;;;;5013672;28;20018;-71
2022/03/10 02:10:19;;;;;;;8.70;1.20;;;24.50;85.10;;;;;;5014099;28;20573;-72
2022/03/10 02:12:51;;;;;;;8.57;2.42;;;24.50;83.80;;;;;;5013995;28;20037;-69
2022/03/10 02:18:09;;;;;;;9.40;1.60;;;25.00;83.00;;;;;;5013406;28;20107;-69
2022/03/10 02:20:40;;;;;;;6.13;1.73;;;25.10;82.00;;;;;;5013535;28;20080;-77
2022/03/10 02:23:10;;;;;;;10.43;2.10;;;25.20;82.50;;;;;;5012989;28;20509;-72
2022/03/10 02:25:39;;;;;;;7.90;1.67;;;25.20;83.30;;;;;;5012673;28;20473;-69
2022/03/10 02:28:07;;;;;;;10.30;2.03;;;25.10;82.60;;;;;;5013172;28;20498;-70
2022/03/10 02:30:35;;;;;;;9.10;1.60;;;25.30;83.20;;;;;;5011176;28;20483;-72
2022/03/10 02:33:04;;;;;;;18.48;2.28;;;25.30;81.20;;;;;;5018368;28;20026;-68
2022/03/10 02:35:31;;;;;;;9.73;2.00;;;25.20;82.30;;;;;;5031776;28;20025;-70
2022/03/10 02:37:59;;;;;;;16.38;2.22;;;25.30;82.00;;;;;;5030967;28;20083;-77
2022/03/10 02:40:27;;;;;;;11.50;2.17;;;25.40;82.30;;;;;;5024022;28;20025;-70
2022/03/10 02:42:55;;;;;;;12.38;3.25;;;25.60;81.80;;;;;;5012168;28;20029;-71
2022/03/10 02:45:23;;;;;;;10.63;2.35;;;25.70;81.40;;;;;;5012540;28;20101;-69
2022/03/10 02:47:51;;;;;;;11.20;2.05;;;25.90;79.50;;;;;;5012177;28;20030;-75
2022/03/10 02:50:18;;;;;;;6.80;1.60;;;26.10;85.30;;;;;;5012466;28;20021;-75
2022/03/10 02:52:46;;;;;;;9.73;2.22;;;26.30;78.70;;;;;;5010174;28;20032;-70
2022/03/10 02:55:13;;;;;;;9.18;1.85;;;26.40;78.50;;;;;;5010503;28;20022;-68
2022/03/10 02:57:40;;;;;;;7.43;1.25;;;26.60;78.40;;;;;;5012540;28;20402;-74
2022/03/10 03:00:09;;;;;;;6.40;1.35;;;26.80;76.40;;;;;;5012722;28;20022;-71
2022/03/10 03:02:36;;;;;;;11.38;2.15;;;26.80;75.90;;;;;;5011501;28;20030;-69
2022/03/10 03:05:06;;;;;;;8.30;2.42;;;27.10;75.20;;;;;;5011540;28;20021;-69
2022/03/10 03:07:34;;;;;;;12.65;2.05;;;27.50;75.70;;;;;;5012605;28;20064;-70
2022/03/10 03:10:02;;;;;;;13.48;2.47;;;27.80;72.70;;;;;;5012160;28;20100;-71
2022/03/10 03:12:31;;;;;;;12.10;1.77;;;27.90;73.60;;;;;;5012201;28;20485;-72
2022/03/10 03:15:01;;;;;;;11.18;2.50;;;28.40;73.50;;;;;;5012570;28;20471;-73
2022/03/10 03:17:29;;;;;;;8.70;2.40;;;28.90;72.10;;;;;;5012827;28;20026;-76
2022/03/10 03:19:56;;;;;;;11.13;2.42;;;29.20;71.50;;;;;;5012294;28;20018;-75
2022/03/10 03:22:23;;;;;;;9.45;1.95;;;29.30;71.00;;;;;;5010901;28;20061;-72
2022/03/10 03:24:50;;;;;;;9.18;2.30;;;29.60;68.40;;;;;;5011051;28;20014;-72
2022/03/10 03:27:19;;;;;;;10.80;2.47;;;29.90;67.40;;;;;;5012187;28;20100;-73
2022/03/10 03:29:46;;;;;;;8.73;2.22;;;30.20;66.70;;;;;;5011008;28;20026;-73
2022/03/10 03:32:17;;;;;;;7.95;1.60;;;30.20;66.70;;;;;;5010482;28;20096;-71
2022/03/10 03:34:47;;;;;;;9.60;2.20;;;30.20;66.90;;;;;;5010353;28;20018;-75
2022/03/10 03:37:14;;;;;;;11.38;1.30;;;30.20;66.10;;;;;;5010349;28;20116;-76
2022/03/10 03:39:41;;;;;;;11.07;1.85;;;29.80;66.20;;;;;;5010157;28;20018;-71
2022/03/10 03:42:08;;;;;;;8.02;1.45;;;28.50;69.60;;;;;;5010436;28;20510;-73
2022/03/10 03:44:36;;;;;;;11.35;2.63;;;28.40;69.60;;;;;;5011318;28;20022;-69
2022/03/10 03:47:03;;;;;;;9.55;1.92;;;28.80;69.20;;;;;;5010438;28;20030;-70
2022/03/10 03:49:30;;;;;;;10.75;2.00;;;29.60;67.80;;;;;;5011839;28;20022;-70
2022/03/10 03:51:58;;;;;;;7.75;1.40;;;30.50;65.70;;;;;;5012093;28;20025;-69
2022/03/10 03:54:25;;;;;;;6.40;1.73;;;30.70;64.60;;;;;;5011789;28;20018;-74
2022/03/10 03:56:52;;;;;;;9.43;2.10;;;30.60;65.40;;;;;;5011669;28;20430;-71
2022/03/10 03:59:20;;;;;;;9.05;1.50;;;30.70;65.20;;;;;;5011858;28;20034;-72
2022/03/10 04:01:49;;;;;;;9.68;1.58;;;31.10;66.50;;;;;;5011633;28;20087;-70
2022/03/10 04:04:19;;;;;;;11.30;1.70;;;31.50;65.20;;;;;;5011951;28;20497;-71
2022/03/10 04:06:47;;;;;;;8.02;1.65;;;31.80;63.60;;;;;;5011660;28;20479;-72
2022/03/10 04:09:14;;;;;;;10.50;1.63;;;32.10;65.00;;;;;;5011799;28;20096;-70
2022/03/10 04:11:41;;;;;;;6.75;1.70;;;32.20;61.60;;;;;;5011386;28;20041;-72
2022/03/10 04:14:11;;;;;;;7.72;1.60;;;32.10;60.70;;;;;;5011505;28;20121;-73
2022/03/10 04:16:38;;;;;;;7.13;1.27;;;32.10;62.10;;;;;;5013640;28;20030;-71
2022/03/10 04:19:06;;;;;;;8.05;1.85;;;31.70;61.90;;;;;;5016055;28;20026;-73
2022/03/10 04:21:35;;;;;;;13.07;2.33;;;31.90;62.10;;;;;;5016030;28;20033;-73
2022/03/10 04:24:08;;;;;;;5.80;1.10;;;32.10;61.60;;;;;;5015015;28;20052;-72
2022/03/10 04:26:40;;;;;;;9.00;1.75;;;32.50;63.40;;;;;;5015443;28;20172;-77
2022/03/10 04:29:08;;;;;;;7.60;1.40;;;32.80;59.80;;;;;;5015498;28;20026;-76
2022/03/10 04:31:35;;;;;;;9.40;1.63;;;32.60;59.40;;;;;;5015832;28;20176;-75
2022/03/10 04:34:04;;;;;;;6.78;1.30;;;32.60;60.60;;;;;;5015782;28;20029;-73
2022/03/10 04:36:35;;;;;;;9.73;1.55;;;32.50;59.00;;;;;;5015017;28;20026;-73
2022/03/10 04:39:03;;;;;;;10.25;1.63;;;32.70;58.50;;;;;;5015312;28;20523;-75
2022/03/10 04:41:31;;;;;;;5.35;1.10;;;32.30;58.60;;;;;;5011443;28;20109;-71
2022/03/10 04:43:58;;;;;;;6.60;2.33;;;31.70;58.30;;;;;;5007926;28;20518;-73
2022/03/10 04:46:25;;;;;;;7.57;1.83;;;30.80;58.70;;;;;;5014486;28;20045;-73
2022/03/10 04:48:53;;;;;;;6.65;1.23;;;30.10;59.80;;;;;;5011476;28;20030;-71
2022/03/10 04:51:22;;;;;;;7.72;1.20;;;30.00;60.60;;;;;;5012628;28;20030;-73
2022/03/10 04:53:52;;;;;;;7.40;1.70;;;30.10;59.90;;;;;;5015062;28;20025;-70
2022/03/10 04:56:19;;;;;;;9.77;1.77;;;29.70;60.70;;;;;;5014776;28;20492;-69
2022/03/10 04:58:48;;;;;;;8.45;2.22;;;28.90;62.90;;;;;;5020575;28;20034;-71
2022/03/10 05:01:18;;;;;;;5.32;1.02;;;28.20;63.00;;;;;;5032925;28;20061;-74
2022/03/10 05:03:46;;;;;;;7.30;1.42;;;27.70;63.60;;;;;;5016855;28;20025;-78
2022/03/10 05:06:14;;;;;;;9.38;2.40;;;27.30;65.20;;;;;;5013536;28;20084;-75
2022/03/10 05:08:41;;;;;;;10.52;2.05;;;27.10;65.80;;;;;;5014197;28;20072;-71
2022/03/10 05:11:09;;;;;;;6.00;1.65;;;27.40;65.90;;;;;;5014317;28;20018;-77
2022/03/10 05:13:36;;;;;;;5.05;1.35;;;28.30;64.50;;;;;;5013449;28;20028;-77
2022/03/10 05:16:03;;;;;;;9.27;2.45;;;29.00;64.10;;;;;;5012503;28;20022;-72
2022/03/10 05:18:31;;;;;;;7.22;1.25;;;28.70;63.30;;;;;;5013490;28;20053;-72
2022/03/10 05:20:58;;;;;;;7.53;1.40;;;28.20;65.20;;;;;;5012368;28;20022;-77
2022/03/10 05:23:25;;;;;;;10.30;1.88;;;27.70;65.60;;;;;;5013161;28;20037;-75
2022/03/10 05:25:52;;;;;;;5.53;1.20;;;27.20;66.80;;;;;;5014348;28;20802;-70
2022/03/10 05:28:20;;;;;;;8.60;1.27;;;27.00;67.10;;;;;;5010705;28;20462;-75
2022/03/10 05:30:48;;;;;;;12.13;1.55;;;26.90;68.10;;;;;;5013747;28;20022;-72
2022/03/10 05:33:15;;;;;;;8.38;1.83;;;26.50;68.60;;;;;;5011688;28;20101;-77
2022/03/10 05:35:43;;;;;;;7.28;1.33;;;27.00;69.20;;;;;;5013418;28;20091;-74
2022/03/10 05:38:11;;;;;;;8.05;1.52;;;28.00;67.80;;;;;;5010756;28;20029;-74
2022/03/10 05:40:38;;;;;;;6.72;1.73;;;29.10;64.80;;;;;;5013645;28;20029;-72
2022/03/10 05:43:06;;;;;;;5.90;2.00;;;30.00;62.60;;;;;;5013014;28;20076;-74
2022/03/10 05:45:36;;;;;;;5.68;1.08;;;30.80;63.10;;;;;;5013262;28;20022;-71
2022/03/10 05:48:03;;;;;;;5.32;1.30;;;31.40;60.00;;;;;;5012717;28;20022;-74
2022/03/10 05:50:31;;;;;;;6.63;1.42;;;31.20;59.80;;;;;;5013073;28;20041;-71
2022/03/10 05:53:00;;;;;;;6.07;1.65;;;31.50;59.20;;;;;;5013493;28;20010;-74
2022/03/10 05:55:28;;;;;;;6.95;1.05;;;31.20;59.90;;;;;;5014958;28;20392;-74
2022/03/10 05:57:57;;;;;;;4.38;1.60;;;31.20;59.40;;;;;;5013587;28;20052;-76
2022/03/10 06:00:29;;;;;;;5.13;2.13;;;31.20;60.30;;;;;;5009075;28;20508;-72
2022/03/10 06:02:57;;;;;;;;;;;31.30;59.70;;;;;;5012969;28;20419;-75
2022/03/10 06:05:28;;;;;;;9.95;1.60;;;31.30;59.90;;;;;;5013971;28;19916;-76
2022/03/10 06:07:56;;;;;;;5.90;1.23;;;31.20;60.40;;;;;;5012193;28;20061;-76
2022/03/10 06:10:29;;;;;;;7.60;1.60;;;31.10;60.70;;;;;;5014323;28;20497;-73
2022/03/10 06:12:56;;;;;;;11.38;3.10;;;31.30;60.30;;;;;;5029762;28;20121;-76
2022/03/10 06:15:25;;;;;;;5.25;1.35;;;31.60;59.90;;;;;;5033279;28;20028;-72
2022/03/10 06:17:52;;;;;;;6.72;1.40;;;31.70;59.30;;;;;;5029119;28;20022;-71
2022/03/10 06:20:19;;;;;;;9.18;1.77;;;31.90;59.20;;;;;;5013490;28;20101;-75
2022/03/10 06:22:47;;;;;;;7.63;1.50;;;31.90;59.50;;;;;;5012307;28;20038;-73
2022/03/10 06:25:17;;;;;;;7.15;1.60;;;32.00;59.60;;;;;;5013367;28;20433;-73
2022/03/10 06:27:44;;;;;;;8.68;1.85;;;32.30;59.70;;;;;;5012323;28;20049;-75
2022/03/10 06:30:12;;;;;;;5.13;1.40;;;31.90;59.00;;;;;;5012009;28;20018;-71
2022/03/10 06:32:39;;;;;;;5.20;1.35;;;30.90;60.00;;;;;;5012382;28;20109;-74
2022/03/10 06:35:07;;;;;;;5.72;1.35;;;29.80;61.20;;;;;;5012371;28;20344;-71
2022/03/10 06:37:35;;;;;;;6.03;1.63;;;28.70;63.10;;;;;;5012493;28;20439;-71
2022/03/10 06:40:02;;;;;;;8.20;1.10;;;27.70;64.80;;;;;;5012456;28;20024;-73
2022/03/10 06:42:31;;;;;;;7.15;1.60;;;27.00;66.60;;;;;;5012361;28;20037;-73
2022/03/10 06:45:01;;;;;;;5.13;0.87;;;26.50;68.70;;;;;;5012218;28;20486;-74
2022/03/10 06:47:29;;;;;;;8.75;1.42;;;26.00;69.90;;;;;;5011431;28;20263;-72
2022/03/10 06:49:56;;;;;;;9.43;1.92;;;25.60;71.20;;;;;;5011609;28;20054;-71
2022/03/10 06:52:23;;;;;;;6.30;2.05;;;25.30;71.70;;;;;;5011946;28;20032;-70
2022/03/10 06:54:51;;;;;;;7.38;1.30;;;25.10;72.30;;;;;;5011844;28;20025;-71
2022/03/10 06:57:18;;;;;;;8.43;1.50;;;24.80;73.50;;;;;;5012064;28;20033;-73
2022/03/10 06:59:45;;;;;;;10.93;1.70;;;24.50;74.70;;;;;;5011664;28;20079;-72
2022/03/10 07:02:12;;;;;;;9.82;1.83;;;24.40;75.30;;;;;;5011999;28;20117;-73
2022/03/10 07:04:40;;;;;;;13.00;1.95;;;24.40;76.30;;;;;;5012358;28;20462;-73
2022/03/10 07:07:07;;;;;;;11.85;1.73;;;24.30;74.70;;;;;;5012207;28;20517;-73
2022/03/10 07:09:37;;;;;;;12.35;2.60;;;24.30;74.50;;;;;;5010642;28;20454;-75
2022/03/10 07:12:05;;;;;;;7.95;2.10;;;24.10;75.20;;;;;;4992448;28;20080;-73
2022/03/10 07:14:32;;;;;;;9.90;2.38;;;23.90;76.80;;;;;;4992126;28;20026;-74
2022/03/10 07:16:59;;;;;;;5.35;2.03;;;24.00;76.80;;;;;;4992216;28;20365;-72
2022/03/10 07:19:27;;;;;;;6.18;1.52;;;24.30;75.00;;;;;;5009154;28;20482;-72
2022/03/10 07:21:54;;;;;;;9.18;1.60;;;24.60;74.00;;;;;;5011794;28;20021;-74
2022/03/10 07:24:21;;;;;;;13.60;2.42;;;25.00;73.40;;;;;;5009934;28;20680;-72
2022/03/10 07:26:48;;;;;;;11.43;2.35;;;25.10;72.60;;;;;;5012968;28;20358;-76
2022/03/10 07:29:16;;;;;;;10.98;2.25;;;25.00;71.70;;;;;;5012379;28;20022;-75
2022/03/10 07:31:43;;;;;;;7.30;2.38;;;24.80;72.00;;;;;;5011885;28;20413;-71
2022/03/10 07:34:11;;;;;;;8.13;2.13;;;24.50;72.10;;;;;;5010523;28;20401;-73
2022/03/10 07:36:42;;;;;;;8.98;2.42;;;24.20;73.60;;;;;;5010583;28;20214;-74
2022/03/10 07:39:09;;;;;;;9.70;1.90;;;23.90;74.60;;;;;;5011956;28;20793;-75
2022/03/10 07:41:37;;;;;;;9.93;1.90;;;23.80;76.30;;;;;;5011345;28;20034;-72
2022/03/10 07:44:05;;;;;;;8.20;2.80;;;23.60;76.70;;;;;;5011219;28;20022;-72
2022/03/10 07:46:33;;;;;;;5.85;2.05;;;23.50;76.90;;;;;;5011754;28;20026;-70
2022/03/10 07:49:00;;;;;;;8.65;3.03;;;23.30;77.10;;;;;;5011400;28;20040;-73
2022/03/10 07:51:27;;;;;;;7.28;2.25;;;23.20;77.80;;;;;;5011391;28;20083;-73
2022/03/10 07:53:55;;;;;;;9.93;2.03;;;23.10;78.70;;;;;;5011977;28;20018;-71
2022/03/10 07:56:22;;;;;;;4.72;1.25;;;23.00;79.90;;;;;;5010644;28;20029;-75
2022/03/10 07:58:50;;;;;;;7.82;1.90;;;22.90;81.20;;;;;;5011256;28;20351;-70
2022/03/10 08:01:17;;;;;;;4.97;1.30;;;22.80;82.10;;;;;;5011596;28;20034;-72
2022/03/10 08:03:48;;;;;;;9.10;2.47;;;22.80;82.60;;;;;;5011337;28;20038;-70
2022/03/10 08:06:16;;;;;;;11.45;2.72;;;22.70;83.30;;;;;;5011989;28;20026;-69
2022/03/10 08:08:44;;;;;;;11.70;2.85;;;22.60;84.20;;;;;;5011776;28;20057;-68
2022/03/10 08:11:12;;;;;;;7.80;3.03;;;22.60;84.20;;;;;;5011997;28;20026;-73
2022/03/10 08:13:40;;;;;;;11.40;3.28;;;22.60;83.70;;;;;;5011336;28;20022;-69
2022/03/10 08:16:07;;;;;;;9.52;2.38;;;22.50;83.50;;;;;;5010395;28;20033;-73
2022/03/10 08:18:34;;;;;;;6.90;2.30;;;22.50;83.30;;;;;;5010993;28;20026;-73
2022/03/10 08:21:02;;;;;;;5.35;1.30;;;22.50;83.20;;;;;;5011184;28;20049;-73
2022/03/10 08:23:29;;;;;;;8.23;2.58;;;22.40;83.40;;;;;;5011283;28;20026;-70
2022/03/10 08:25:57;;;;;;;7.00;1.42;;;22.40;83.10;;;;;;5011667;28;20014;-71
2022/03/10 08:28:26;;;;;;;5.85;2.40;;;22.30;83.40;;;;;;5005298;28;20065;-76
2022/03/10 08:30:54;;;;;;;7.63;2.67;;;22.20;83.90;;;;;;5008744;28;20445;-71
2022/03/10 08:33:21;;;;;;;9.20;1.35;;;22.20;83.90;;;;;;5011473;28;20018;-71
2022/03/10 08:35:48;;;;;;;6.22;1.75;;;22.20;84.60;;;;;;5011228;28;20479;-77
2022/03/10 08:38:19;;;;;;;6.32;1.40;;;22.20;84.10;;;;;;5012577;28;20490;-77
2022/03/10 08:40:46;;;;;;;6.88;1.58;;;22.20;84.80;;;;;;5012630;28;20030;-70
2022/03/10 08:43:15;;;;;;;9.50;2.03;;;22.10;85.30;;;;;;5012642;28;20080;-70
2022/03/10 08:45:43;;;;;;;9.38;1.80;;;22.10;85.80;;;;;;5010678;28;20386;-70
2022/03/10 08:48:13;;;;;;;6.75;1.23;;;22.20;86.50;;;;;;5011593;28;20029;-74
2022/03/10 08:50:41;;;;;;;7.70;1.77;;;22.10;87.20;;;;;;5011432;28;20022;-70
2022/03/10 08:53:09;;;;;;;5.50;1.30;;;22.10;87.30;;;;;;5011802;28;20525;-73
2022/03/10 08:55:38;;;;;;;13.50;3.28;;;22.00;87.40;;;;;;5014153;28;20022;-71
2022/03/10 08:58:05;;;;;;;7.95;1.48;;;22.10;88.00;;;;;;5012874;28;20481;-72
2022/03/10 09:00:33;;;;;;;7.47;1.42;;;22.00;88.50;;;;;;5010991;28;20072;-76
2022/03/10 09:03:01;;;;;;;5.82;1.17;;;22.00;87.30;;;;;;5016172;28;20094;-73
2022/03/10 09:05:29;;;;;;;5.93;1.33;;;21.90;87.80;;;;;;5017155;28;20022;-71
2022/03/10 09:07:56;;;;;;;8.35;1.65;;;21.90;88.00;;;;;;5015401;28;20084;-72
2022/03/10 09:10:23;;;;;;;9.75;3.38;;;21.90;88.50;;;;;;5015525;28;20030;-76
2022/03/10 09:12:51;;;;;;;9.60;3.20;;;21.90;88.50;;;;;;5015364;28;20025;-75
2022/03/10 09:15:18;;;;;;;10.10;2.75;;;21.90;88.50;;;;;;5017189;28;20497;-69
2022/03/10 09:17:45;;;;;;;7.07;1.42;;;21.90;88.20;;;;;;5018213;28;20029;-72
2022/03/10 09:20:13;;;;;;;8.82;1.70;;;21.90;88.10;;;;;;5016214;28;20030;-73
2022/03/10 09:22:42;;;;;;;8.50;1.70;;;21.90;88.30;;;;;;5015362;28;20038;-74
2022/03/10 09:25:11;;;;;;;6.78;1.50;;;21.90;88.50;;;;;;5015334;28;20025;-74
2022/03/10 09:27:39;;;;;;;6.60;1.25;;;21.90;89.00;;;;;;5014970;28;20077;-74
2022/03/10 09:30:09;;;;;;;6.15;1.00;;;21.80;90.00;;;;;;5016275;28;20022;-74
2022/03/10 09:32:38;;;;;;;9.43;2.38;;;21.80;90.20;;;;;;5016380;28;20105;-71
2022/03/10 09:35:08;;;;;;;12.60;2.38;;;21.80;90.40;;;;;;5016694;28;20045;-72
2022/03/10 09:37:36;;;;;;;4.43;1.45;;;21.80;90.50;;;;;;5015107;28;20720;-72
2022/03/10 09:40:05;;;;;;;9.98;2.47;;;21.80;91.00;;;;;;5017118;28;20022;-71
2022/03/10 09:42:34;;;;;;;8.68;2.20;;;21.80;91.10;;;;;;5014882;28;20066;-72
2022/03/10 09:45:07;;;;;;;7.97;2.15;;;21.80;91.30;;;;;;5015749;28;20018;-73
2022/03/10 09:47:39;;;;;;;9.95;1.70;;;21.80;91.20;;;;;;5014479;28;20100;-70
2022/03/10 09:50:12;;;;;;;12.32;1.45;;;21.80;91.40;;;;;;5015020;28;20022;-70
2022/03/10 09:52:40;;;;;;;9.23;1.55;;;21.80;91.50;;;;;;5015378;28;20028;-70
2022/03/10 09:55:10;;;;;;;10.85;1.60;;;21.80;91.60;;;;;;5014924;28;20057;-72
2022/03/10 09:57:43;;;;;;;8.98;2.60;;;21.80;91.60;;;;;;4979535;28;20446;-73
2022/03/10 10:00:13;;;;;;;10.48;1.80;;;21.70;91.40;;;;;;5014408;28;20077;-70
2022/03/10 10:02:40;;;;;;;10.13;2.28;;;21.70;91.50;;;;;;5015040;28;20456;-71
2022/03/10 10:05:32;;;;;;;3.88;0.98;;;21.70;91.40;;;;;;5014265;28;20867;-75
2022/03/10 10:08:18;;;;;;;4.57;0.90;;;21.70;90.90;;;;;;5013412;28;20121;-70
2022/03/10 10:10:47;;;;;;;6.50;1.23;;;21.70;90.70;;;;;;5015459;28;20417;-73
2022/03/10 10:13:37;;;;;;;3.97;0.88;;;21.60;90.70;;;;;;5010046;28;20104;-70
2022/03/10 10:16:10;;;;;;;8.68;1.23;;;21.60;90.90;;;;;;5003360;28;20029;-71
2022/03/10 10:18:39;;;;;;;9.15;1.02;;;21.50;90.80;;;;;;5015093;28;20098;-71
2022/03/10 10:21:07;;;;;;;11.98;1.27;;;21.50;90.80;;;;;;5014995;28;20022;-74
2022/03/10 10:23:36;;;;;;;4.75;1.02;;;21.50;90.90;;;;;;5014714;28;20034;-70
2022/03/10 10:26:08;;;;;;;5.90;1.20;;;21.50;91.00;;;;;;5015219;28;20048;-73
2022/03/10 10:28:39;;;;;;;;;;;21.50;91.20;;;;;;5015196;28;20026;-74
2022/03/10 10:31:18;;;;;;;5.40;1.05;;;21.50;91.50;;;;;;5015470;28;20423;-71
2022/03/10 10:34:09;;;;;;;10.00;1.55;;;21.50;91.80;;;;;;5012867;28;20022;-70
2022/03/10 10:36:37;;;;;;;8.48;1.83;;;21.50;92.10;;;;;;5013644;28;20014;-70
2022/03/10 10:39:23;;;;;;;9.65;1.73;;;21.40;92.40;;;;;;5013936;28;20033;-73
2022/03/10 10:41:50;;;;;;;8.73;1.50;;;21.40;92.40;;;;;;5013736;28;20022;-70
2022/03/10 10:44:23;;;;;;;6.40;1.52;;;21.40;92.70;;;;;;5009199;28;20025;-70
2022/03/10 10:46:58;;;;;;;10.45;2.25;;;21.30;92.50;;;;;;5011941;28;20080;-73
2022/03/10 10:49:25;;;;;;;10.35;1.50;;;21.30;92.60;;;;;;5012480;28;20359;-72
2022/03/10 10:51:56;;;;;;;10.20;1.73;;;21.20;92.60;;;;;;5009750;28;20046;-74
2022/03/10 10:54:27;;;;;;;13.45;1.52;;;21.20;92.70;;;;;;5012877;28;20022;-72
2022/03/10 10:57:03;;;;;;;8.63;1.42;;;21.20;92.60;;;;;;5011271;28;20026;-72
2022/03/10 10:59:37;;;;;;;9.52;1.20;;;21.20;92.70;;;;;;5012557;28;20386;-71
2022/03/10 11:02:21;;;;;;;8.77;1.30;;;21.20;92.60;;;;;;5012846;28;20030;-72
2022/03/10 11:04:54;;;;;;;7.35;0.80;;;21.20;92.70;;;;;;5012905;28;20021;-72
2022/03/10 11:07:23;;;;;;;6.75;1.02;;;21.20;92.50;;;;;;5031004;28;20034;-73
2022/03/10 11:09:54;;;;;;;10.07;1.27;;;21.20;92.70;;;;;;5032181;28;20041;-72
2022/03/10 11:12:21;;;;;;;8.60;1.20;;;21.10;92.20;;;;;;5031012;28;20029;-72
2022/03/10 11:14:49;;;;;;;9.88;1.10;;;21.10;92.20;;;;;;5032346;28;20025;-73
2022/03/10 11:17:19;;;;;;;7.60;1.65;;;21.10;92.60;;;;;;5031493;28;20025;-72
2022/03/10 11:19:48;;;;;;;7.88;1.33;;;21.10;92.50;;;;;;5031994;28;20029;-72
2022/03/10 11:22:15;;;;;;;7.68;1.60;;;21.00;92.70;;;;;;5031880;28;20029;-73
2022/03/10 11:25:06;;;;;;;7.07;1.17;;;21.00;92.90;;;;;;5031730;28;20977;-75
2022/03/10 11:27:37;;;;;;;11.38;2.00;;;21.10;93.20;;;;;;5030452;28;20033;-72
2022/03/10 11:30:09;;;;;;;7.30;1.58;;;21.00;93.30;;;;;;5031890;28;20071;-72
2022/03/10 11:32:36;;;;;;;7.35;1.30;;;21.00;93.70;;;;;;5032191;28;20022;-71
2022/03/10 11:35:06;;;;;;;5.93;1.20;;;20.90;93.90;;;;;;5031896;28;20108;-73
2022/03/10 11:37:45;;;;;;;6.07;1.35;;;20.90;94.00;;;;;;5031535;28;20508;-72
2022/03/10 11:40:18;;;;;;;8.35;1.55;;;20.90;94.10;;;;;;5031637;28;20025;-71
2022/03/10 11:42:45;;;;;;;11.40;1.50;;;20.90;94.20;;;;;;5031561;28;20117;-72
2022/03/10 11:45:22;;;;;;;5.65;1.52;;;20.90;94.50;;;;;;5030382;28;20079;-71
2022/03/10 11:47:49;;;;;;;8.35;1.45;;;20.90;94.30;;;;;;5031581;28;20031;-71
2022/03/10 11:50:22;;;;;;;9.43;1.77;;;21.00;93.90;;;;;;5031574;28;20088;-75
2022/03/10 11:53:04;;;;;;;7.18;1.55;;;21.00;94.00;;;;;;5031630;28;20034;-73
2022/03/10 11:55:54;;;;;;;9.38;1.27;;;21.00;94.00;;;;;;5031400;28;20040;-72
2022/03/10 11:58:34;;;;;;;13.25;2.45;;;21.10;93.90;;;;;;5031425;28;20470;-73
2022/03/10 12:01:05;;;;;;;7.57;1.75;;;21.00;93.50;;;;;;5031713;28;20081;-73
2022/03/10 12:03:36;;;;;;;8.68;1.48;;;21.10;93.20;;;;;;5031707;28;20061;-72
2022/03/10 12:06:04;;;;;;;11.70;1.45;;;21.00;93.30;;;;;;5030737;28;20083;-72
2022/03/10 12:08:36;;;;;;;6.63;1.25;;;21.00;93.00;;;;;;5029813;28;20041;-72
2022/03/10 12:11:05;;;;;;;5.05;1.58;;;20.90;93.10;;;;;;5031764;28;20056;-73
2022/03/10 12:13:47;;;;;;;7.47;1.40;;;20.90;93.00;;;;;;5031250;28;20026;-74
2022/03/10 12:16:26;;;;;;;9.43;1.55;;;20.90;93.00;;;;;;5031455;28;20095;-72
2022/03/10 12:18:54;;;;;;;6.78;1.73;;;20.90;93.20;;;;;;5031939;28;20025;-73
2022/03/10 12:21:29;;;;;;;9.15;1.35;;;21.00;93.30;;;;;;5031533;28;20055;-72
2022/03/10 12:24:01;;;;;;;5.80;1.30;;;21.00;93.60;;;;;;5031546;28;20112;-72
2022/03/10 12:26:34;;;;;;;10.93;1.60;;;20.90;93.70;;;;;;5031265;28;20027;-73
2022/03/10 12:29:07;;;;;;;6.53;1.25;;;20.90;94.20;;;;;;5031296;28;20068;-74
2022/03/10 12:31:36;;;;;;;8.60;1.40;;;20.90;94.30;;;;;;5031128;28;20041;-74
2022/03/10 12:34:06;;;;;;;8.52;1.75;;;20.90;94.40;;;;;;5031403;28;20025;-72
2022/03/10 12:36:41;;;;;;;5.53;1.60;;;20.80;95.00;;;;;;5031357;28;20055;-74
2022/03/10 12:39:14;;;;;;;8.00;1.65;;;20.80;94.90;;;;;;5034933;28;20484;-73
2022/03/10 12:42:01;;;;;;;10.18;2.20;;;20.70;95.10;;;;;;5034917;28;20536;-74
2022/03/10 12:44:29;;;;;;;7.93;1.52;;;20.70;95.20;;;;;;5033864;28;20033;-72
2022/03/10 12:47:01;;;;;;;7.88;1.65;;;20.60;95.40;;;;;;5034879;28;20099;-74
2022/03/10 12:49:48;;;;;;;7.15;1.48;;;20.60;95.90;;;;;;5021279;28;20088;-73
2022/03/10 12:52:17;;;;;;;9.23;1.80;;;20.50;96.00;;;;;;5013740;28;20026;-74
2022/03/10 12:54:46;;;;;;;8.68;1.90;;;20.50;96.00;;;;;;5015014;28;20033;-72
2022/03/10 12:57:14;;;;;;;12.23;2.78;;;20.50;96.30;;;;;;5014654;28;20022;-74
2022/03/10 12:59:42;;;;;;;10.80;2.17;;;20.50;96.40;;;;;;5014848;28;20105;-73
2022/03/10 13:02:18;;;;;;;5.13;1.63;;;20.50;96.50;;;;;;5013783;28;20093;-72